Main page
METAR-TAF:

METAR-TAF

Airports :

Lawrence J. Timmerman Airport

Milwaukee, Wisconsin, United States

latitude: 43-07N, longitude: 088-02W, elevation: 745 ft

Current weather observation

The report was made 20 minutes ago, at 03:55 UTC
Wind 3 mph from the Southwest
Temperature 59°F
Humidity 59%
Pressure 29.87 in. Hg
Visibility: 10 miles
Scattered clouds at a height of 7000 ft
Scattered clouds at a height of 8500 ft

METAR: KMWC 230355Z AUTO 22003KT 10SM SCT070 SCT085 15/07 A2987 RMK AO2

Time: 23:15 (04:15 UTC)


TAF: missing

Weather observations and forecasts of more than 4000 airports (METAR and TAF reports).

The available stations are represented by yellow and red dots on the map.

Hover mouse over dot to see the name of the station.

Then click to see weather observations and forecasts.

To change the map : click on the green buttons with a black cross to zoom in, on the green button with a dash to zoom out, or on the green arrows for adjacent maps.


METAR-TAF: